Time;durP1;ratioP1;P1;durP2;ratioP2;P2;SDS_P1;SDS_P2;PMS_P1;PMS_P2;Temp;Humidity;BMP_temperature;BMP_pressure;BME280_temperature;BME280_humidity;BME280_pressure;Samples;Min_cycle;Max_cycle;Signal;HPM_P1;HPM_P2
2023/01/16 00:02:00;;;;;;;8.32;5.28;;;;;;;;;;5062718;28;20028;-40
2023/01/16 00:04:26;;;;;;;9.27;6.68;;;;;;;;;;5068755;28;20139;-41
2023/01/16 00:06:51;;;;;;;9.68;6.00;;;;;;;;;;5067070;28;20032;-45
2023/01/16 00:09:17;;;;;;;7.55;5.60;;;;;;;;;;5066955;28;20288;-42
2023/01/16 00:11:43;;;;;;;7.90;6.57;;;;;;;;;;5066407;28;20476;-41
2023/01/16 00:14:09;;;;;;;9.63;6.68;;;;;;;;;;5066630;28;20064;-42
2023/01/16 00:16:34;;;;;;;7.13;5.78;;;;;;;;;;5066663;28;20503;-41
2023/01/16 00:18:59;;;;;;;7.45;5.88;;;;;;;;;;5067966;28;20719;-40
2023/01/16 00:21:28;;;;;;;8.75;5.45;;;;;;;;;;5068489;28;20112;-41
2023/01/16 00:23:57;;;;;;;7.03;5.82;;;;;;;;;;5066083;28;20112;-41
2023/01/16 00:26:24;;;;;;;9.70;5.45;;;;;;;;;;5067351;28;20349;-40
2023/01/16 00:28:50;;;;;;;8.55;5.78;;;;;;;;;;5064884;28;20056;-41
2023/01/16 00:31:16;;;;;;;8.63;5.65;;;;;;;;;;5067089;28;20060;-41
2023/01/16 00:33:42;;;;;;;8.95;5.43;;;;;;;;;;5066714;28;20484;-41
2023/01/16 00:36:11;;;;;;;6.70;5.22;;;;;;;;;;5067477;28;20491;-41
2023/01/16 00:38:37;;;;;;;9.02;5.43;;;;;;;;;;5068662;28;20036;-41
2023/01/16 00:41:03;;;;;;;5.05;3.80;;;;;;;;;;5069303;28;20491;-41
2023/01/16 00:43:28;;;;;;;5.80;2.97;;;;;;;;;;5065338;28;20145;-41
2023/01/16 00:45:54;;;;;;;3.60;2.70;;;;;;;;;;5068516;28;20028;-41
2023/01/16 00:48:19;;;;;;;4.50;2.80;;;;;;;;;;5067992;28;20128;-38
2023/01/16 00:50:44;;;;;;;7.07;2.67;;;;;;;;;;5068434;28;20110;-43
2023/01/16 00:53:10;;;;;;;3.45;2.47;;;;;;;;;;5063772;28;20037;-41
2023/01/16 00:55:36;;;;;;;3.58;2.17;;;;;;;;;;5066509;28;20392;-41
2023/01/16 00:58:03;;;;;;;7.68;2.67;;;;;;;;;;5066305;28;20040;-41
2023/01/16 01:00:29;;;;;;;4.65;2.75;;;;;;;;;;5068182;28;20021;-44
2023/01/16 01:02:54;;;;;;;4.97;3.70;;;;;;;;;;5067444;28;20067;-42
2023/01/16 01:05:20;;;;;;;6.25;3.58;;;;;;;;;;5066052;28;20025;-40
2023/01/16 01:07:45;;;;;;;5.13;3.20;;;;;;;;;;5067686;28;20527;-41
2023/01/16 01:10:11;;;;;;;5.70;3.92;;;;;;;;;;5068478;28;20055;-41
2023/01/16 01:12:36;;;;;;;6.18;4.32;;;;;;;;;;5065668;28;20048;-41
2023/01/16 01:15:02;;;;;;;5.53;4.22;;;;;;;;;;5070400;28;20477;-41
2023/01/16 01:17:27;;;;;;;6.18;4.35;;;;;;;;;;5067267;28;20048;-41
2023/01/16 01:19:53;;;;;;;4.88;4.18;;;;;;;;;;5066395;28;20111;-45
2023/01/16 01:22:18;;;;;;;8.00;4.30;;;;;;;;;;5064699;28;20037;-41
2023/01/16 01:24:47;;;;;;;5.93;4.20;;;;;;;;;;5067907;28;20052;-42
2023/01/16 01:27:13;;;;;;;5.90;4.43;;;;;;;;;;5063671;28;20044;-41
2023/01/16 01:29:38;;;;;;;9.93;5.35;;;;;;;;;;5066478;28;20404;-41
2023/01/16 01:32:05;;;;;;;7.07;4.50;;;;;;;;;;5067742;28;20163;-40
2023/01/16 01:34:33;;;;;;;7.40;4.68;;;;;;;;;;5067108;28;20481;-40
2023/01/16 01:36:58;;;;;;;7.18;4.03;;;;;;;;;;5064812;28;20479;-41
2023/01/16 01:39:24;;;;;;;6.53;4.65;;;;;;;;;;5067684;28;20042;-41
2023/01/16 01:41:49;;;;;;;6.43;4.22;;;;;;;;;;5066789;28;20054;-41
2023/01/16 01:44:50;;;;;;;5.63;4.10;;;;;;;;;;5062533;28;20048;-42
2023/01/16 01:47:17;;;;;;;9.32;4.35;;;;;;;;;;5067086;28;20531;-39
2023/01/16 01:49:43;;;;;;;6.78;4.63;;;;;;;;;;5065285;28;20108;-41
2023/01/16 01:52:09;;;;;;;6.43;4.40;;;;;;;;;;5066823;28;20464;-39
2023/01/16 01:54:44;;;;;;;9.30;4.35;;;;;;;;;;5064106;28;20047;-41
2023/01/16 01:57:15;;;;;;;10.95;4.95;;;;;;;;;;5046942;28;20484;-40
2023/01/16 01:59:45;;;;;;;7.53;4.22;;;;;;;;;;5065654;28;20054;-41
2023/01/16 02:02:16;;;;;;;6.40;4.50;;;;;;;;;;5065684;28;20040;-39
2023/01/16 02:04:44;;;;;;;6.55;4.65;;;;;;;;;;5067745;28;20040;-40
2023/01/16 02:07:13;;;;;;;7.05;4.53;;;;;;;;;;5061751;28;20128;-39
2023/01/16 02:09:39;;;;;;;7.93;4.10;;;;;;;;;;5066409;28;20096;-41
2023/01/16 02:12:13;;;;;;;5.93;4.13;;;;;;;;;;5068002;28;20120;-41
2023/01/16 02:14:44;;;;;;;8.57;4.07;;;;;;;;;;5066658;28;20124;-40
2023/01/16 02:20:12;;;;;;;6.18;3.58;;;;;;;;;;5066691;28;20064;-40
2023/01/16 02:23:14;;;;;;;5.10;3.70;;;;;;;;;;5062635;28;20080;-42
2023/01/16 02:26:10;;;;;;;5.25;3.97;;;;;;;;;;5062727;28;20502;-41
2023/01/16 02:29:03;;;;;;;3.88;3.47;;;;;;;;;;5063747;28;20037;-41
2023/01/16 02:32:02;;;;;;;5.97;3.60;;;;;;;;;;5063717;28;20532;-40
2023/01/16 02:34:40;;;;;;;8.55;3.63;;;;;;;;;;5063046;28;20052;-41
2023/01/16 02:37:23;;;;;;;3.85;3.28;;;;;;;;;;5065700;28;20039;-41
2023/01/16 02:40:12;;;;;;;4.07;3.50;;;;;;;;;;5066753;28;20671;-41
2023/01/16 02:42:45;;;;;;;5.00;3.25;;;;;;;;;;5064396;28;20033;-40
2023/01/16 02:45:32;;;;;;;8.43;3.47;;;;;;;;;;5065015;28;20035;-40
2023/01/16 02:48:21;;;;;;;3.78;3.35;;;;;;;;;;5064171;28;20041;-40
2023/01/16 02:51:16;;;;;;;5.78;3.38;;;;;;;;;;5064744;28;20052;-41
2023/01/16 02:54:02;;;;;;;6.93;3.50;;;;;;;;;;5064989;28;20040;-41
2023/01/16 02:56:33;;;;;;;4.10;3.03;;;;;;;;;;5063180;28;20440;-41
2023/01/16 02:58:59;;;;;;;4.38;3.05;;;;;;;;;;5063332;28;20033;-41
2023/01/16 03:01:24;;;;;;;4.68;3.10;;;;;;;;;;5065224;28;20020;-41
2023/01/16 03:04:02;;;;;;;5.07;3.08;;;;;;;;;;5063066;28;20028;-41
2023/01/16 03:06:58;;;;;;;3.97;2.80;;;;;;;;;;5064931;28;20504;-41
2023/01/16 03:09:42;;;;;;;3.30;2.72;;;;;;;;;;5061399;28;20037;-41
2023/01/16 03:12:32;;;;;;;4.05;2.88;;;;;;;;;;5062844;28;20657;-40
2023/01/16 03:15:11;;;;;;;6.22;2.85;;;;;;;;;;5065790;28;20063;-41
2023/01/16 03:17:45;;;;;;;4.10;2.35;;;;;;;;;;5063505;28;20701;-40
2023/01/16 03:20:29;;;;;;;5.40;2.92;;;;;;;;;;5063282;28;20124;-44
2023/01/16 03:23:21;;;;;;;7.85;2.63;;;;;;;;;;5065084;28;20093;-41
2023/01/16 03:26:02;;;;;;;4.93;2.75;;;;;;;;;;5060016;28;20039;-40
2023/01/16 03:28:46;;;;;;;2.78;2.47;;;;;;;;;;5062278;28;20097;-41
2023/01/16 03:31:14;;;;;;;4.63;2.45;;;;;;;;;;5062860;28;20032;-41
2023/01/16 03:34:02;;;;;;;5.43;2.92;;;;;;;;;;5063039;28;20047;-43
2023/01/16 03:36:34;;;;;;;5.13;2.75;;;;;;;;;;5062217;28;20372;-41
2023/01/16 03:39:02;;;;;;;3.60;2.70;;;;;;;;;;5063145;28;20124;-44
2023/01/16 03:41:30;;;;;;;3.17;2.72;;;;;;;;;;5066247;28;20036;-40
2023/01/16 03:44:01;;;;;;;3.47;2.63;;;;;;;;;;5061956;28;20033;-42
2023/01/16 03:46:31;;;;;;;5.53;3.40;;;;;;;;;;5062559;28;20036;-41
2023/01/16 03:49:05;;;;;;;3.10;2.80;;;;;;;;;;5060355;28;20106;-40
2023/01/16 03:51:35;;;;;;;5.18;3.08;;;;;;;;;;5065131;28;20035;-40
2023/01/16 03:54:03;;;;;;;5.78;3.25;;;;;;;;;;5061645;28;20036;-41
2023/01/16 03:56:39;;;;;;;4.93;3.45;;;;;;;;;;5063371;28;20526;-41
2023/01/16 03:59:05;;;;;;;5.10;2.70;;;;;;;;;;5059937;28;20091;-40
2023/01/16 04:01:38;;;;;;;3.08;2.78;;;;;;;;;;5064752;28;20036;-41
2023/01/16 04:04:20;;;;;;;6.65;3.10;;;;;;;;;;5063021;28;20037;-40
2023/01/16 04:06:51;;;;;;;3.47;2.85;;;;;;;;;;5066845;28;20480;-40
2023/01/16 04:09:23;;;;;;;3.55;2.58;;;;;;;;;;5063066;28;20044;-40
2023/01/16 04:11:50;;;;;;;4.82;2.53;;;;;;;;;;5061281;28;20036;-40
2023/01/16 04:14:18;;;;;;;3.92;3.13;;;;;;;;;;5064202;28;20032;-40
2023/01/16 04:16:43;;;;;;;4.45;3.10;;;;;;;;;;5064005;28;20445;-40
2023/01/16 04:19:13;;;;;;;4.82;2.55;;;;;;;;;;5060890;28;20099;-41
2023/01/16 04:21:43;;;;;;;5.32;3.00;;;;;;;;;;5061338;28;20091;-40
2023/01/16 04:24:08;;;;;;;3.47;2.42;;;;;;;;;;5063146;28;20406;-41
2023/01/16 04:26:33;;;;;;;3.83;3.00;;;;;;;;;;5063908;28;20086;-41
2023/01/16 04:28:59;;;;;;;4.22;3.05;;;;;;;;;;5064885;28;20040;-40
2023/01/16 04:31:27;;;;;;;4.97;2.78;;;;;;;;;;5064465;28;20049;-42
2023/01/16 04:33:52;;;;;;;3.88;2.97;;;;;;;;;;5062705;28;20045;-41
2023/01/16 04:36:18;;;;;;;7.93;3.28;;;;;;;;;;5063221;28;20041;-41
2023/01/16 04:38:43;;;;;;;4.07;2.63;;;;;;;;;;5060415;28;20216;-40
2023/01/16 04:41:09;;;;;;;2.90;2.65;;;;;;;;;;5062178;28;20040;-40
2023/01/16 04:43:34;;;;;;;4.15;3.00;;;;;;;;;;5060956;28;20037;-41
2023/01/16 04:45:59;;;;;;;3.90;2.80;;;;;;;;;;5065797;28;20029;-40
2023/01/16 04:48:25;;;;;;;5.38;2.55;;;;;;;;;;5063479;28;20042;-41
2023/01/16 04:50:50;;;;;;;5.68;3.13;;;;;;;;;;5067238;28;20031;-40
2023/01/16 04:53:16;;;;;;;3.60;2.65;;;;;;;;;;5068843;28;20032;-40
2023/01/16 04:55:41;;;;;;;8.00;3.22;;;;;;;;;;5065604;28;20032;-41
2023/01/16 04:58:06;;;;;;;4.30;3.13;;;;;;;;;;5067887;28;20048;-41
2023/01/16 05:00:32;;;;;;;4.97;3.10;;;;;;;;;;5068248;28;20032;-41
2023/01/16 05:02:58;;;;;;;5.85;2.83;;;;;;;;;;5068834;28;20044;-41
2023/01/16 05:05:24;;;;;;;4.43;2.90;;;;;;;;;;5067038;28;20465;-40
2023/01/16 05:08:15;;;;;;;3.75;2.40;;;;;;;;;;5066654;28;20081;-41
2023/01/16 05:10:35;;;;;;;7.35;3.22;;;;;;;;;;5064853;28;20025;-40
2023/01/16 05:13:00;;;;;;;10.27;3.15;;;;;;;;;;5069103;28;20543;-41
2023/01/16 05:15:26;;;;;;;6.38;3.08;;;;;;;;;;5066417;28;20047;-41
2023/01/16 05:17:52;;;;;;;5.70;3.25;;;;;;;;;;5067152;28;20033;-41
2023/01/16 05:20:18;;;;;;;4.03;3.20;;;;;;;;;;5064224;28;20036;-42
2023/01/16 05:22:43;;;;;;;6.70;2.58;;;;;;;;;;5065365;28;20094;-41
2023/01/16 05:25:09;;;;;;;4.47;3.08;;;;;;;;;;5067190;28;20051;-41
2023/01/16 05:27:34;;;;;;;8.70;3.35;;;;;;;;;;5066772;28;20067;-40
2023/01/16 05:29:59;;;;;;;6.60;2.58;;;;;;;;;;5064149;28;20021;-40
2023/01/16 05:32:25;;;;;;;4.18;2.60;;;;;;;;;;5067406;28;20101;-41
2023/01/16 05:34:50;;;;;;;4.90;3.20;;;;;;;;;;5064225;28;20025;-41
2023/01/16 05:37:15;;;;;;;10.40;3.30;;;;;;;;;;5066822;28;20548;-40
2023/01/16 05:39:41;;;;;;;6.53;2.70;;;;;;;;;;5066053;28;20035;-41
2023/01/16 05:42:20;;;;;;;5.82;2.67;;;;;;;;;;5065333;28;20047;-41
2023/01/16 05:44:47;;;;;;;4.40;2.92;;;;;;;;;;5063466;28;20630;-40
2023/01/16 05:47:13;;;;;;;5.40;2.97;;;;;;;;;;5060988;28;20033;-40
2023/01/16 05:49:38;;;;;;;2.90;2.05;;;;;;;;;;5064317;28;20036;-42
2023/01/16 05:52:04;;;;;;;13.07;2.50;;;;;;;;;;5061865;28;22370;-41
2023/01/16 05:54:29;;;;;;;6.10;2.30;;;;;;;;;;5062834;28;20039;-40
2023/01/16 05:56:54;;;;;;;4.47;2.88;;;;;;;;;;5064377;28;20032;-42
2023/01/16 05:59:20;;;;;;;5.40;2.13;;;;;;;;;;5061734;28;20500;-40
2023/01/16 06:01:45;;;;;;;5.75;2.78;;;;;;;;;;5065720;28;20102;-41
2023/01/16 06:04:10;;;;;;;8.43;2.63;;;;;;;;;;5064295;28;20037;-41
2023/01/16 06:06:36;;;;;;;7.82;3.15;;;;;;;;;;5064042;28;20481;-41
2023/01/16 06:09:01;;;;;;;4.32;2.10;;;;;;;;;;5063916;28;20043;-41
2023/01/16 06:11:26;;;;;;;5.90;2.83;;;;;;;;;;5064792;28;20591;-41
2023/01/16 06:13:52;;;;;;;5.53;2.22;;;;;;;;;;5061636;28;20029;-41
2023/01/16 06:16:18;;;;;;;6.75;2.63;;;;;;;;;;5062845;28;20190;-44
2023/01/16 06:18:43;;;;;;;6.18;2.63;;;;;;;;;;5063836;28;20076;-43
2023/01/16 06:21:09;;;;;;;4.20;2.72;;;;;;;;;;5065106;28;20229;-41
2023/01/16 06:23:34;;;;;;;7.25;2.45;;;;;;;;;;5064614;28;20047;-41
2023/01/16 06:26:01;;;;;;;11.35;2.78;;;;;;;;;;5062561;28;20036;-40
2023/01/16 06:28:26;;;;;;;6.50;2.75;;;;;;;;;;5063893;28;20043;-41
2023/01/16 06:30:52;;;;;;;3.58;2.50;;;;;;;;;;5060586;28;20032;-41
2023/01/16 06:33:17;;;;;;;9.27;2.80;;;;;;;;;;5064272;28;20045;-40
2023/01/16 06:35:43;;;;;;;10.65;2.78;;;;;;;;;;5063577;28;20063;-41
2023/01/16 06:38:08;;;;;;;8.73;3.13;;;;;;;;;;5060331;28;20112;-41
2023/01/16 06:40:34;;;;;;;11.02;3.30;;;;;;;;;;5066236;28;20115;-42
2023/01/16 06:42:59;;;;;;;7.30;3.10;;;;;;;;;;5063941;28;20523;-41
2023/01/16 06:45:25;;;;;;;7.97;3.08;;;;;;;;;;5065822;28;20025;-40
2023/01/16 06:47:52;;;;;;;5.93;3.22;;;;;;;;;;5062687;28;20048;-41
2023/01/16 06:50:17;;;;;;;9.25;3.97;;;;;;;;;;5064291;28;20115;-40
2023/01/16 06:52:42;;;;;;;6.18;4.13;;;;;;;;;;5059468;28;20128;-41
2023/01/16 06:55:08;;;;;;;6.05;3.03;;;;;;;;;;5064182;28;20496;-41
2023/01/16 06:57:35;;;;;;;5.82;3.13;;;;;;;;;;5065174;28;20032;-40
2023/01/16 07:00:03;;;;;;;9.43;3.67;;;;;;;;;;5063021;28;20619;-41
2023/01/16 07:02:28;;;;;;;7.13;3.22;;;;;;;;;;5062795;28;20056;-40
2023/01/16 07:04:54;;;;;;;10.00;4.57;;;;;;;;;;5064672;28;20024;-49
2023/01/16 07:07:19;;;;;;;11.63;4.18;;;;;;;;;;5063731;28;20086;-39
2023/01/16 07:09:45;;;;;;;12.00;5.43;;;;;;;;;;5066816;28;20027;-41
2023/01/16 07:12:10;;;;;;;7.40;4.38;;;;;;;;;;5062358;28;20476;-41
2023/01/16 07:22:48;;;;;;;11.75;3.08;;;;;;;;;;5064442;28;20059;-45
2023/01/16 07:25:21;;;;;;;7.57;3.35;;;;;;;;;;5061423;28;20056;-41
2023/01/16 07:27:49;;;;;;;7.40;4.00;;;;;;;;;;5058182;28;20033;-41
2023/01/16 07:30:20;;;;;;;10.80;4.43;;;;;;;;;;5063412;28;20463;-41
2023/01/16 07:32:46;;;;;;;7.70;4.18;;;;;;;;;;5063666;28;20123;-40
2023/01/16 07:35:12;;;;;;;9.52;5.68;;;;;;;;;;5065079;28;20127;-40
2023/01/16 07:37:38;;;;;;;10.98;4.88;;;;;;;;;;5065020;28;20488;-40
2023/01/16 07:40:05;;;;;;;16.80;5.45;;;;;;;;;;5066954;28;20353;-40
2023/01/16 07:42:30;;;;;;;12.63;6.03;;;;;;;;;;5063633;28;20192;-41
2023/01/16 07:44:55;;;;;;;13.90;5.82;;;;;;;;;;5064567;28;20418;-41
2023/01/16 07:47:21;;;;;;;6.65;3.70;;;;;;;;;;5060695;28;20094;-41
2023/01/16 07:49:46;;;;;;;14.77;6.15;;;;;;;;;;5064354;28;20021;-41
2023/01/16 07:52:12;;;;;;;21.70;4.53;;;;;;;;;;5064599;28;20040;-40
2023/01/16 07:54:40;;;;;;;14.00;4.20;;;;;;;;;;5061314;28;20036;-41
2023/01/16 07:57:05;;;;;;;10.30;3.83;;;;;;;;;;5062066;28;20036;-45
2023/01/16 07:59:31;;;;;;;12.88;3.50;;;;;;;;;;5058291;28;20075;-46
2023/01/16 08:01:56;;;;;;;12.45;3.83;;;;;;;;;;5062395;28;20028;-40
2023/01/16 08:04:22;;;;;;;10.23;3.15;;;;;;;;;;5063068;28;20118;-45
2023/01/16 08:06:47;;;;;;;10.88;2.55;;;;;;;;;;5065422;28;20179;-41
2023/01/16 08:09:13;;;;;;;11.30;2.38;;;;;;;;;;5061770;28;20127;-41
2023/01/16 08:11:38;;;;;;;15.77;3.15;;;;;;;;;;5062086;28;20032;-41
2023/01/16 08:14:06;;;;;;;11.57;2.28;;;;;;;;;;5061790;28;20540;-40
2023/01/16 08:16:31;;;;;;;14.75;3.10;;;;;;;;;;5062740;28;20469;-47
2023/01/16 08:18:57;;;;;;;8.35;2.20;;;;;;;;;;5064903;28;20051;-41
2023/01/16 08:21:22;;;;;;;14.38;2.80;;;;;;;;;;5060243;28;20040;-40
2023/01/16 08:23:48;;;;;;;16.90;3.25;;;;;;;;;;5062955;28;20120;-41
2023/01/16 08:26:13;;;;;;;9.68;2.33;;;;;;;;;;5070247;28;20108;-41
2023/01/16 08:28:39;;;;;;;11.40;2.70;;;;;;;;;;5064228;28;20037;-40
2023/01/16 08:31:08;;;;;;;9.73;2.85;;;;;;;;;;5065851;28;20063;-41
2023/01/16 08:33:37;;;;;;;16.95;2.20;;;;;;;;;;5067619;28;20043;-41
2023/01/16 08:36:07;;;;;;;11.68;2.78;;;;;;;;;;5067404;28;20032;-40
2023/01/16 08:38:33;;;;;;;20.58;2.72;;;;;;;;;;5069732;28;20093;-43
2023/01/16 08:40:59;;;;;;;10.65;3.63;;;;;;;;;;5064648;28;20108;-41
2023/01/16 08:51:55;;;;;;;14.93;4.25;;;;;;;;;;5063171;28;20058;-41
2023/01/16 08:54:20;;;;;;;10.50;2.25;;;;;;;;;;5067979;28;20067;-41
2023/01/16 08:56:46;;;;;;;13.05;2.53;;;;;;;;;;5067616;28;20020;-41
2023/01/16 08:59:11;;;;;;;12.70;2.45;;;;;;;;;;5063785;28;21150;-41
2023/01/16 09:01:38;;;;;;;10.25;2.40;;;;;;;;;;5064339;28;20027;-41
2023/01/16 09:04:04;;;;;;;17.63;2.85;;;;;;;;;;5066948;28;20048;-41
2023/01/16 09:06:30;;;;;;;26.35;4.20;;;;;;;;;;5065432;28;20082;-40
2023/01/16 09:08:56;;;;;;;14.00;3.25;;;;;;;;;;5068143;28;20045;-41
2023/01/16 09:14:05;;;;;;;16.17;3.75;;;;;;;;;;5064065;28;20095;-40
2023/01/16 09:16:30;;;;;;;14.63;3.83;;;;;;;;;;5061936;28;20499;-41
2023/01/16 09:18:56;;;;;;;15.82;3.17;;;;;;;;;;5067346;28;20455;-41
2023/01/16 09:21:24;;;;;;;19.02;4.22;;;;;;;;;;5064246;28;20081;-41
2023/01/16 09:23:50;;;;;;;14.15;4.35;;;;;;;;;;5068960;28;20111;-42
2023/01/16 09:26:16;;;;;;;11.18;3.00;;;;;;;;;;5063408;28;20735;-41
2023/01/16 09:28:41;;;;;;;10.77;3.92;;;;;;;;;;5064410;28;20048;-41
2023/01/16 09:31:07;;;;;;;8.63;3.55;;;;;;;;;;5064766;28;20040;-41
2023/01/16 09:33:32;;;;;;;7.78;3.35;;;;;;;;;;5064329;28;20048;-41
2023/01/16 09:35:57;;;;;;;13.15;3.63;;;;;;;;;;5065673;28;20032;-41
2023/01/16 09:38:23;;;;;;;15.05;3.92;;;;;;;;;;5063415;28;20036;-41
2023/01/16 09:40:53;;;;;;;13.90;4.20;;;;;;;;;;5067245;28;20071;-41
2023/01/16 09:43:38;;;;;;;11.48;4.20;;;;;;;;;;5066259;28;20070;-40
2023/01/16 09:46:18;;;;;;;14.48;4.03;;;;;;;;;;5063320;28;20064;-41
2023/01/16 09:48:55;;;;;;;7.07;3.40;;;;;;;;;;5065315;28;20484;-41
2023/01/16 09:51:25;;;;;;;13.40;3.97;;;;;;;;;;5068357;28;20039;-40
2023/01/16 09:59:45;;;;;;;18.98;4.43;;;;;;;;;;5052182;28;20128;-41
2023/01/16 10:02:22;;;;;;;12.63;4.50;;;;;;;;;;5065554;28;20114;-39
2023/01/16 10:04:50;;;;;;;8.75;4.05;;;;;;;;;;5065771;28;20496;-40
2023/01/16 10:07:45;;;;;;;15.07;5.00;;;;;;;;;;5066855;28;20153;-40
2023/01/16 10:10:25;;;;;;;8.48;4.20;;;;;;;;;;5063063;28;20104;-41
2023/01/16 10:13:06;;;;;;;7.43;3.78;;;;;;;;;;5061430;28;20107;-41
2023/01/16 10:16:00;;;;;;;11.70;3.67;;;;;;;;;;5062201;28;20111;-41
2023/01/16 10:18:29;;;;;;;12.45;3.53;;;;;;;;;;5063648;28;20068;-41
2023/01/16 10:21:21;;;;;;;12.25;3.00;;;;;;;;;;5063699;28;20035;-41
2023/01/16 10:23:47;;;;;;;;;;;;;;;;;;5059905;28;20044;-41
2023/01/16 10:26:42;;;;;;;13.27;3.35;;;;;;;;;;5065486;28;19916;-41
2023/01/16 10:29:30;;;;;;;15.15;5.18;;;;;;;;;;4981782;28;20581;-41
2023/01/16 10:32:05;;;;;;;15.30;6.25;;;;;;;;;;4981615;28;20046;-42
2023/01/16 10:34:43;;;;;;;16.50;9.63;;;;;;;;;;4984706;28;20082;-41
2023/01/16 10:37:09;;;;;;;25.50;11.27;;;;;;;;;;4983732;28;20043;-39
2023/01/16 10:39:37;;;;;;;27.02;13.00;;;;;;;;;;4983199;28;20038;-41
2023/01/16 10:50:43;;;;;;;10.80;3.40;;;;;;;;;;4981229;28;20057;-41
2023/01/16 10:53:10;;;;;;;6.45;2.55;;;;;;;;;;4980197;28;20471;-41
2023/01/16 10:55:40;;;;;;;6.13;2.50;;;;;;;;;;4982809;28;20072;-41
2023/01/16 10:58:23;;;;;;;10.40;2.50;;;;;;;;;;4980990;28;20097;-41
2023/01/16 11:00:50;;;;;;;12.60;3.00;;;;;;;;;;4982226;28;20498;-41
2023/01/16 11:03:39;;;;;;;9.68;2.60;;;;;;;;;;4983980;28;20129;-41
2023/01/16 11:06:20;;;;;;;7.63;2.92;;;;;;;;;;5029283;28;20048;-41
2023/01/16 11:08:54;;;;;;;10.27;3.25;;;;;;;;;;5059967;28;20028;-41
2023/01/16 11:20:20;;;;;;;;;;;;;;;;;;5063434;28;20125;-41
2023/01/16 11:22:58;;;;;;;3.75;1.10;;;;;;;;;;5064229;28;19969;-41
2023/01/16 11:25:28;;;;;;;2.03;1.50;;;;;;;;;;5056328;28;20039;-40
2023/01/16 11:27:56;;;;;;;2.53;1.38;;;;;;;;;;5058884;28;20089;-41
2023/01/16 11:30:28;;;;;;;2.72;1.48;;;;;;;;;;5061791;28;20123;-42
2023/01/16 11:32:56;;;;;;;4.90;0.90;;;;;;;;;;5062855;28;20036;-41
2023/01/16 11:35:29;;;;;;;3.13;1.30;;;;;;;;;;5060483;28;20025;-41
2023/01/16 11:37:56;;;;;;;2.70;1.00;;;;;;;;;;5063752;28;20044;-41
2023/01/16 11:40:25;;;;;;;2.63;1.00;;;;;;;;;;5062930;28;20435;-41
2023/01/16 11:48:26;;;;;;;2.55;1.00;;;;;;;;;;5063176;28;20110;-41
2023/01/16 11:51:03;;;;;;;7.60;1.90;;;;;;;;;;5063353;28;20464;-41
2023/01/16 11:53:31;;;;;;;3.63;1.23;;;;;;;;;;5065136;28;20128;-41
2023/01/16 11:56:22;;;;;;;4.45;1.42;;;;;;;;;;5062473;28;20020;-41
2023/01/16 11:59:06;;;;;;;5.95;1.15;;;;;;;;;;5062199;28;20222;-41
2023/01/16 12:02:16;;;;;;;5.07;1.48;;;;;;;;;;5067689;28;20025;-41
2023/01/16 12:08:05;;;;;;;3.35;0.90;;;;;;;;;;5066764;28;20051;-41
2023/01/16 12:10:38;;;;;;;2.78;1.10;;;;;;;;;;5064072;28;20056;-41
2023/01/16 12:15:59;;;;;;;2.38;0.90;;;;;;;;;;5065966;28;20031;-41
2023/01/16 12:19:00;;;;;;;1.23;0.80;;;;;;;;;;5065499;28;20052;-41
2023/01/16 12:22:02;;;;;;;7.65;1.70;;;;;;;;;;5068028;28;20028;-42
2023/01/16 12:24:28;;;;;;;5.25;1.10;;;;;;;;;;5064965;28;20393;-42
2023/01/16 12:27:22;;;;;;;5.65;1.10;;;;;;;;;;5066313;28;20025;-41
2023/01/16 12:30:05;;;;;;;3.08;1.08;;;;;;;;;;5067831;28;20037;-41
2023/01/16 12:32:55;;;;;;;3.10;0.90;;;;;;;;;;5066072;28;20535;-41
2023/01/16 12:35:26;;;;;;;3.22;0.80;;;;;;;;;;5065437;28;20083;-41
2023/01/16 12:38:14;;;;;;;2.38;0.68;;;;;;;;;;5066716;28;20382;-41
2023/01/16 12:40:48;;;;;;;2.70;1.02;;;;;;;;;;5066941;28;20444;-42
2023/01/16 12:43:22;;;;;;;2.28;0.90;;;;;;;;;;5066820;28;20052;-42
2023/01/16 12:46:01;;;;;;;5.30;1.13;;;;;;;;;;5065963;28;20081;-42
2023/01/16 12:48:29;;;;;;;6.10;1.20;;;;;;;;;;5065342;28;20532;-41
2023/01/16 12:51:16;;;;;;;2.70;1.20;;;;;;;;;;5068646;28;20032;-41
2023/01/16 12:54:00;;;;;;;3.38;1.40;;;;;;;;;;5064139;28;20037;-41
2023/01/16 12:56:54;;;;;;;5.63;1.55;;;;;;;;;;5068213;28;20055;-42
2023/01/16 12:59:37;;;;;;;4.30;1.33;;;;;;;;;;5064886;28;20036;-44
2023/01/16 13:02:19;;;;;;;4.70;1.40;;;;;;;;;;5063134;28;20074;-41
2023/01/16 13:04:51;;;;;;;;;;;;;;;;;;5067731;28;20043;-42
2023/01/16 13:07:17;;;;;;;6.38;1.13;;;;;;;;;;5067527;28;19956;-41
2023/01/16 13:15:44;;;;;;;3.42;1.20;;;;;;;;;;5066152;28;20039;-41
2023/01/16 13:18:31;;;;;;;5.70;1.52;;;;;;;;;;5066689;28;20040;-41
2023/01/16 13:21:00;;;;;;;6.18;1.48;;;;;;;;;;5067595;28;20024;-41
2023/01/16 13:23:32;;;;;;;4.47;1.48;;;;;;;;;;5065644;28;20056;-41
2023/01/16 13:26:02;;;;;;;;;;;;;;;;;;5066448;28;20029;-41
2023/01/16 13:28:30;;;;;;;5.55;2.10;;;;;;;;;;5065769;28;20422;-41
2023/01/16 13:30:58;;;;;;;5.13;1.40;;;;;;;;;;5065307;28;20044;-41
2023/01/16 13:33:32;;;;;;;4.80;1.20;;;;;;;;;;5067066;28;20036;-41
2023/01/16 13:36:33;;;;;;;7.00;1.42;;;;;;;;;;5067185;28;20070;-42
2023/01/16 13:39:32;;;;;;;7.05;1.38;;;;;;;;;;5064796;28;20047;-40
2023/01/16 13:41:59;;;;;;;9.77;1.85;;;;;;;;;;5067302;28;20124;-41
2023/01/16 13:47:17;;;;;;;2.95;1.00;;;;;;;;;;5065149;28;20098;-40
2023/01/16 13:49:48;;;;;;;4.40;1.77;;;;;;;;;;5066381;28;20030;-41
2023/01/16 13:52:24;;;;;;;5.10;1.70;;;;;;;;;;5062262;28;20111;-41
2023/01/16 13:54:54;;;;;;;4.32;1.63;;;;;;;;;;5065756;28;20113;-41
2023/01/16 13:57:24;;;;;;;6.15;1.30;;;;;;;;;;5064642;28;20024;-40
2023/01/16 14:00:01;;;;;;;4.85;1.40;;;;;;;;;;5065227;28;20064;-41
2023/01/16 14:02:35;;;;;;;3.65;1.20;;;;;;;;;;5065218;28;20031;-43
2023/01/16 14:05:07;;;;;;;2.13;1.30;;;;;;;;;;5067636;28;20028;-41
2023/01/16 14:11:34;;;;;;;4.28;1.17;;;;;;;;;;5065754;28;20502;-42
2023/01/16 14:16:30;;;;;;;6.05;1.83;;;;;;;;;;5061840;28;20484;-41
2023/01/16 14:17:03;;;;;;;3.97;1.02;;;;;;;;;;5067034;28;20458;-41
2023/01/16 14:19:38;;;;;;;4.65;1.85;;;;;;;;;;5066069;28;20120;-41
2023/01/16 14:24:45;;;;;;;2.95;1.23;;;;;;;;;;5065274;28;20443;-41
2023/01/16 14:27:16;;;;;;;1.77;0.93;;;;;;;;;;5064154;28;20033;-40
2023/01/16 14:29:49;;;;;;;4.30;1.20;;;;;;;;;;5066237;28;20021;-41
2023/01/16 14:32:18;;;;;;;7.10;1.80;;;;;;;;;;5025376;28;20033;-41
2023/01/16 14:34:58;;;;;;;1.98;0.90;;;;;;;;;;5025464;28;20481;-42
2023/01/16 14:37:33;;;;;;;5.28;1.33;;;;;;;;;;5023125;28;20030;-41
2023/01/16 14:40:00;;;;;;;4.00;1.15;;;;;;;;;;5028053;28;20033;-42
2023/01/16 14:57:01;;;;;;;4.20;1.30;;;;;;;;;;5020434;28;20103;-41
2023/01/16 14:59:32;;;;;;;5.07;1.73;;;;;;;;;;5023344;28;20504;-41
2023/01/16 15:02:18;;;;;;;4.00;1.83;;;;;;;;;;5024136;28;20065;-41
2023/01/16 15:05:06;;;;;;;4.05;1.48;;;;;;;;;;5021810;28;20060;-42
2023/01/16 15:07:45;;;;;;;5.07;1.42;;;;;;;;;;5022187;28;20050;-42
2023/01/16 15:10:29;;;;;;;2.38;1.30;;;;;;;;;;5022720;28;20128;-41
2023/01/16 15:21:57;;;;;;;3.17;1.27;;;;;;;;;;5021151;28;20048;-42
2023/01/16 15:22:15;;;;;;;3.85;1.25;;;;;;;;;;5021443;28;20532;-42
2023/01/16 15:24:45;;;;;;;6.80;1.35;;;;;;;;;;5021809;28;20048;-40
2023/01/16 15:27:20;;;;;;;2.60;1.10;;;;;;;;;;5017933;28;20036;-41
2023/01/16 15:30:05;;;;;;;3.25;1.13;;;;;;;;;;5020386;28;20053;-41
2023/01/16 15:32:52;;;;;;;2.78;1.00;;;;;;;;;;5021541;28;20060;-41
2023/01/16 15:35:18;;;;;;;2.53;1.08;;;;;;;;;;5023892;28;20080;-41
2023/01/16 15:37:54;;;;;;;4.15;1.15;;;;;;;;;;5019753;28;20045;-42
2023/01/16 15:40:24;;;;;;;1.48;0.88;;;;;;;;;;5022303;28;20057;-41
2023/01/16 15:48:21;;;;;;;3.78;2.20;;;;;;;;;;5020789;28;20110;-41
2023/01/16 15:51:01;;;;;;;3.22;2.55;;;;;;;;;;5021352;28;20038;-41
2023/01/16 15:53:34;;;;;;;2.53;1.88;;;;;;;;;;5020432;28;20073;-44
2023/01/16 15:56:05;;;;;;;7.35;3.30;;;;;;;;;;5020423;28;20167;-41
2023/01/16 15:58:31;;;;;;;5.43;2.17;;;;;;;;;;5022586;28;20041;-41
2023/01/16 16:01:05;;;;;;;10.43;2.67;;;;;;;;;;5018941;28;20033;-41
2023/01/16 16:03:46;;;;;;;6.57;2.88;;;;;;;;;;5020490;28;20687;-41
2023/01/16 16:06:15;;;;;;;3.75;1.90;;;;;;;;;;5024627;28;20091;-42
2023/01/16 16:08:46;;;;;;;3.75;2.25;;;;;;;;;;5022829;28;20124;-40
2023/01/16 16:17:54;;;;;;;4.15;3.08;;;;;;;;;;5023813;28;20437;-40
2023/01/16 16:19:46;;;;;;;1.90;1.55;;;;;;;;;;5026288;28;20045;-41
2023/01/16 16:25:32;;;;;;;5.53;1.90;;;;;;;;;;5025855;28;20040;-41
2023/01/16 16:27:58;;;;;;;5.05;2.13;;;;;;;;;;5020064;28;20653;-41
2023/01/16 16:30:27;;;;;;;2.85;1.50;;;;;;;;;;5031363;28;20083;-41
2023/01/16 16:32:53;;;;;;;6.05;2.20;;;;;;;;;;5065960;28;20070;-41
2023/01/16 16:35:28;;;;;;;3.88;1.60;;;;;;;;;;5066326;28;20024;-42
2023/01/16 16:37:54;;;;;;;2.40;1.60;;;;;;;;;;5062276;28;20123;-41
2023/01/16 16:40:19;;;;;;;9.05;3.88;;;;;;;;;;5063587;28;20449;-42
2023/01/16 16:42:51;;;;;;;10.15;4.15;;;;;;;;;;5058853;28;20032;-40
2023/01/16 16:45:17;;;;;;;8.05;3.00;;;;;;;;;;5062672;28;20036;-41
2023/01/16 16:47:47;;;;;;;7.68;4.35;;;;;;;;;;5066106;28;20045;-41
2023/01/16 16:50:31;;;;;;;8.77;4.50;;;;;;;;;;5067896;28;20031;-41
2023/01/16 16:53:28;;;;;;;8.38;3.95;;;;;;;;;;5066786;28;20037;-41
2023/01/16 16:56:10;;;;;;;7.95;4.13;;;;;;;;;;5063280;28;20037;-41